Time;durP1;ratioP1;P1;durP2;ratioP2;P2;SDS_P1;SDS_P2;PMS_P1;PMS_P2;Temp;Humidity;BMP_temperature;BMP_pressure;BME280_temperature;BME280_humidity;BME280_pressure;Samples;Min_cycle;Max_cycle;Signal;HPM_P1;HPM_P2
2021/04/14 00:01:19;;;;;;;1999.90;999.90;;;4.30;99.90;;;;;;5037976;28;20236;-83
2021/04/14 00:03:45;;;;;;;1999.90;999.90;;;4.30;99.90;;;;;;5038546;28;20494;-83
2021/04/14 00:06:12;;;;;;;1999.90;999.90;;;4.20;99.90;;;;;;5038068;28;20188;-83
2021/04/14 00:08:37;;;;;;;1999.90;999.90;;;4.20;99.90;;;;;;5037170;28;20407;-83
2021/04/14 00:11:05;;;;;;;1999.90;999.90;;;4.20;99.90;;;;;;5038430;28;20169;-83
2021/04/14 00:13:41;;;;;;;1999.90;999.90;;;4.20;99.90;;;;;;5038301;28;20188;-83
2021/04/14 00:16:08;;;;;;;1999.90;999.90;;;4.10;99.90;;;;;;5037938;28;20268;-83
2021/04/14 00:18:33;;;;;;;1999.90;999.90;;;4.10;99.90;;;;;;5038055;28;20173;-83
2021/04/14 00:20:59;;;;;;;1999.90;999.90;;;4.00;99.90;;;;;;5038041;28;20208;-83
2021/04/14 00:23:25;;;;;;;1999.90;999.90;;;3.90;99.90;;;;;;5038420;28;20184;-83
2021/04/14 00:25:52;;;;;;;1999.90;999.90;;;3.90;99.90;;;;;;5036738;28;20164;-83
2021/04/14 00:28:21;;;;;;;1999.90;999.90;;;3.80;99.90;;;;;;5036484;28;20185;-83
2021/04/14 00:30:47;;;;;;;1999.90;999.90;;;3.70;99.90;;;;;;5036938;28;20181;-83
2021/04/14 00:33:13;;;;;;;1999.90;999.90;;;3.70;99.90;;;;;;5036782;28;20184;-83
2021/04/14 00:35:39;;;;;;;1999.90;999.90;;;3.60;99.90;;;;;;5038139;28;20550;-83
2021/04/14 00:38:06;;;;;;;1999.90;999.90;;;3.50;99.90;;;;;;5036924;28;20200;-83
2021/04/14 00:40:42;;;;;;;1999.90;999.90;;;3.50;99.90;;;;;;5037887;28;20439;-83
2021/04/14 00:43:20;;;;;;;1999.90;999.90;;;3.40;99.90;;;;;;5037815;28;20512;-83
2021/04/14 00:45:46;;;;;;;1999.90;999.90;;;3.40;99.90;;;;;;5037977;28;20180;-83
2021/04/14 00:48:12;;;;;;;1999.90;999.90;;;3.40;99.90;;;;;;5037330;28;20591;-83
2021/04/14 00:50:39;;;;;;;1999.90;999.90;;;3.30;99.90;;;;;;5041693;28;20165;-83
2021/04/14 00:53:07;;;;;;;1999.90;999.90;;;3.30;99.90;;;;;;5041690;28;20259;-83
2021/04/14 00:55:35;;;;;;;1999.90;999.90;;;3.20;99.90;;;;;;5041605;28;20691;-83
2021/04/14 00:58:01;;;;;;;1999.90;999.90;;;3.10;99.90;;;;;;5039967;28;20220;-83
2021/04/14 01:00:35;;;;;;;1999.90;999.90;;;3.10;99.90;;;;;;5041171;28;20165;-83
2021/04/14 01:03:02;;;;;;;1999.90;999.90;;;3.00;99.90;;;;;;5041257;28;20215;-83
2021/04/14 01:05:31;;;;;;;1999.90;999.90;;;3.00;99.90;;;;;;5041506;28;20171;-83
2021/04/14 01:07:56;;;;;;;1999.90;999.90;;;2.90;99.90;;;;;;5040902;28;20185;-83
2021/04/14 01:10:24;;;;;;;1999.90;999.90;;;2.90;99.90;;;;;;5040867;28;20192;-83
2021/04/14 01:12:50;;;;;;;1999.90;999.90;;;2.80;99.90;;;;;;5041019;28;20189;-83
2021/04/14 01:15:28;;;;;;;1999.90;999.90;;;2.80;99.90;;;;;;5040391;28;20189;-83
2021/04/14 01:17:54;;;;;;;1999.90;999.90;;;2.80;99.90;;;;;;5040793;28;20188;-83
2021/04/14 01:20:20;;;;;;;1999.90;999.90;;;2.80;99.90;;;;;;5039455;28;20177;-83
2021/04/14 01:22:46;;;;;;;1999.90;999.90;;;2.90;99.90;;;;;;5041352;28;20165;-83
2021/04/14 01:25:13;;;;;;;1999.90;999.90;;;2.90;99.90;;;;;;5041752;28;20255;-83
2021/04/14 01:27:39;;;;;;;1999.90;999.90;;;2.90;99.90;;;;;;5040490;28;20184;-83
2021/04/14 01:30:19;;;;;;;1999.90;999.90;;;2.90;99.90;;;;;;5039349;28;20219;-83
2021/04/14 01:32:45;;;;;;;1999.90;999.90;;;2.90;99.90;;;;;;5039592;28;20176;-83
2021/04/14 01:35:12;;;;;;;1999.90;999.90;;;2.90;99.90;;;;;;5040743;28;20189;-83
2021/04/14 01:37:47;;;;;;;1999.90;999.90;;;2.80;99.90;;;;;;5038840;28;20538;-83
2021/04/14 01:40:13;;;;;;;1999.90;999.90;;;2.70;99.90;;;;;;5041121;28;20157;-83
2021/04/14 01:42:39;;;;;;;1999.90;999.90;;;2.70;99.90;;;;;;5042090;28;20720;-83
2021/04/14 01:45:07;;;;;;;1999.90;999.90;;;2.70;99.90;;;;;;5039841;28;20212;-83
2021/04/14 01:47:32;;;;;;;1999.90;999.90;;;2.70;99.90;;;;;;5040797;28;20518;-83
2021/04/14 01:49:58;;;;;;;1999.90;999.90;;;2.80;99.90;;;;;;5040809;28;20255;-83
2021/04/14 01:52:24;;;;;;;1999.90;999.90;;;2.70;99.90;;;;;;5040615;28;20310;-83
2021/04/14 01:54:50;;;;;;;1999.90;999.90;;;2.70;99.90;;;;;;5041056;28;20895;-83
2021/04/14 01:57:15;;;;;;;1999.90;999.90;;;2.70;99.90;;;;;;5040116;28;20423;-83
2021/04/14 01:59:41;;;;;;;1999.90;999.90;;;2.70;99.90;;;;;;5039951;28;20188;-83
2021/04/14 02:02:07;;;;;;;1999.90;999.90;;;2.70;99.90;;;;;;5040578;28;20169;-83
2021/04/14 02:04:33;;;;;;;1999.90;999.90;;;2.80;99.90;;;;;;5040148;28;20257;-83
2021/04/14 02:06:59;;;;;;;1999.90;999.90;;;2.90;99.90;;;;;;5039833;28;20192;-83
2021/04/14 02:09:25;;;;;;;1999.90;999.90;;;2.90;99.90;;;;;;5040202;28;20172;-83
2021/04/14 02:11:50;;;;;;;1999.90;999.90;;;2.80;99.90;;;;;;5039748;28;20171;-83
2021/04/14 02:14:16;;;;;;;1999.90;999.90;;;2.70;99.90;;;;;;5041062;28;20236;-83
2021/04/14 02:16:42;;;;;;;1999.90;999.90;;;2.60;99.90;;;;;;5038482;28;20200;-83
2021/04/14 02:19:08;;;;;;;1999.90;999.90;;;2.50;99.90;;;;;;5040145;28;20212;-83
2021/04/14 02:21:35;;;;;;;1999.90;999.90;;;2.40;99.90;;;;;;5040109;28;20240;-83
2021/04/14 02:24:01;;;;;;;1999.90;999.90;;;2.30;99.90;;;;;;5040173;28;20188;-83
2021/04/14 02:26:28;;;;;;;1999.90;999.90;;;2.30;99.90;;;;;;5038346;28;20185;-83
2021/04/14 02:28:53;;;;;;;1999.90;999.90;;;2.20;99.90;;;;;;5041023;28;20655;-83
2021/04/14 02:31:29;;;;;;;1999.90;999.90;;;2.20;99.90;;;;;;5039947;28;20287;-83
2021/04/14 02:33:57;;;;;;;1999.90;999.90;;;2.10;99.90;;;;;;5040503;28;20157;-83
2021/04/14 02:36:23;;;;;;;1999.90;999.90;;;2.10;99.90;;;;;;5040207;28;20201;-83
2021/04/14 02:38:49;;;;;;;1999.90;999.90;;;2.10;99.90;;;;;;5040562;28;20208;-83
2021/04/14 02:41:15;;;;;;;1999.90;999.90;;;2.00;99.90;;;;;;5040576;28;20455;-83
2021/04/14 02:43:40;;;;;;;1999.90;999.90;;;2.00;99.90;;;;;;5039835;28;20219;-84
2021/04/14 02:46:06;;;;;;;1999.90;999.90;;;2.00;99.90;;;;;;5040152;28;20434;-83
2021/04/14 02:48:32;;;;;;;1999.90;999.90;;;1.90;99.90;;;;;;5040253;28;20172;-83
2021/04/14 02:50:57;;;;;;;1999.90;999.90;;;1.90;99.90;;;;;;5038567;28;20713;-84
2021/04/14 02:53:23;;;;;;;1999.90;999.90;;;1.90;99.90;;;;;;5039652;28;20534;-83
2021/04/14 02:55:49;;;;;;;1999.90;999.90;;;1.90;99.90;;;;;;5040078;28;20668;-83
2021/04/14 02:58:14;;;;;;;1999.90;999.90;;;1.80;99.90;;;;;;5040350;28;20162;-83
2021/04/14 03:00:43;;;;;;;1999.90;999.90;;;1.80;99.90;;;;;;5040146;28;20247;-83
2021/04/14 03:03:08;;;;;;;1999.90;999.90;;;1.80;99.90;;;;;;5038928;28;20252;-84
2021/04/14 03:05:35;;;;;;;1999.90;999.90;;;1.80;99.90;;;;;;5039570;28;20193;-83
2021/04/14 03:08:01;;;;;;;1999.90;999.90;;;1.80;99.90;;;;;;5038811;28;20197;-83
2021/04/14 03:10:28;;;;;;;1999.90;999.90;;;1.70;99.90;;;;;;5040338;28;20636;-84
2021/04/14 03:12:55;;;;;;;1999.90;999.90;;;1.70;99.90;;;;;;5039188;28;20411;-84
2021/04/14 03:15:24;;;;;;;1999.90;999.90;;;1.70;99.90;;;;;;5040076;28;20200;-83
2021/04/14 03:17:51;;;;;;;1999.90;999.90;;;1.70;99.90;;;;;;5038279;28;20199;-83
2021/04/14 03:20:17;;;;;;;1999.90;999.90;;;1.70;99.90;;;;;;5038449;28;20576;-84
2021/04/14 03:22:46;;;;;;;1999.90;999.90;;;1.80;99.90;;;;;;5040157;28;20177;-83
2021/04/14 03:25:12;;;;;;;1999.90;999.90;;;1.70;99.90;;;;;;5038785;28;20201;-84
2021/04/14 03:27:38;;;;;;;1999.90;999.90;;;1.60;99.90;;;;;;5040072;28;20197;-83
2021/04/14 03:30:06;;;;;;;1999.90;999.90;;;1.60;99.90;;;;;;5040459;28;20169;-83
2021/04/14 03:32:32;;;;;;;1999.90;999.90;;;1.60;99.90;;;;;;5040780;28;20167;-83
2021/04/14 03:34:57;;;;;;;1999.90;999.90;;;1.60;99.90;;;;;;5040366;28;20165;-84
2021/04/14 03:37:24;;;;;;;1999.90;999.90;;;1.60;99.90;;;;;;5040552;28;20481;-83
2021/04/14 03:39:49;;;;;;;1999.90;999.90;;;1.60;99.90;;;;;;5039549;28;20196;-83
2021/04/14 03:42:15;;;;;;;1999.90;999.90;;;1.60;99.90;;;;;;5039495;28;20165;-83
2021/04/14 03:44:41;;;;;;;1999.90;999.90;;;1.60;99.90;;;;;;5038450;28;20161;-83
2021/04/14 03:47:07;;;;;;;1999.90;999.90;;;1.60;99.90;;;;;;5040099;28;20177;-83
2021/04/14 03:49:33;;;;;;;1999.90;999.90;;;1.50;99.90;;;;;;5040445;28;20201;-83
2021/04/14 03:52:00;;;;;;;1999.90;999.90;;;1.50;99.90;;;;;;5039277;28;20171;-83
2021/04/14 03:54:25;;;;;;;1999.90;999.90;;;1.50;99.90;;;;;;5039575;28;20161;-83
2021/04/14 03:56:51;;;;;;;1999.90;999.90;;;1.50;99.90;;;;;;5039419;28;20204;-83
2021/04/14 03:59:17;;;;;;;1999.90;999.90;;;1.40;99.90;;;;;;5039608;28;20396;-83
2021/04/14 04:01:43;;;;;;;1999.90;999.90;;;1.40;99.90;;;;;;5039581;28;20169;-83
2021/04/14 04:04:09;;;;;;;1999.90;999.90;;;1.40;99.90;;;;;;5040034;28;20430;-83
2021/04/14 04:06:35;;;;;;;1999.90;999.90;;;1.40;99.90;;;;;;5038203;28;20185;-83
2021/04/14 04:09:00;;;;;;;1999.90;999.90;;;1.40;99.90;;;;;;5038242;28;20415;-83
2021/04/14 04:11:26;;;;;;;1999.90;999.90;;;1.40;99.90;;;;;;5036631;28;20188;-83
2021/04/14 04:13:53;;;;;;;1999.90;999.90;;;1.40;99.90;;;;;;5038722;28;20311;-83
2021/04/14 04:16:22;;;;;;;1999.90;999.90;;;1.30;99.90;;;;;;5038124;28;20455;-83
2021/04/14 04:18:49;;;;;;;1999.90;999.90;;;1.30;99.90;;;;;;5036739;28;20169;-83
2021/04/14 04:21:14;;;;;;;1999.90;999.90;;;1.30;99.90;;;;;;5037529;28;20244;-83
2021/04/14 04:23:40;;;;;;;1999.90;999.90;;;1.30;99.90;;;;;;5039279;28;20193;-83
2021/04/14 04:26:06;;;;;;;1999.90;999.90;;;1.30;99.90;;;;;;5041733;28;20165;-83
2021/04/14 04:28:32;;;;;;;1999.90;999.90;;;1.20;99.90;;;;;;5041478;28;20185;-83
2021/04/14 04:30:58;;;;;;;1999.90;999.90;;;1.20;99.90;;;;;;5040553;28;20169;-83
2021/04/14 04:33:24;;;;;;;1999.90;999.90;;;1.30;99.90;;;;;;5041369;28;20177;-83
2021/04/14 04:35:50;;;;;;;1999.90;999.90;;;1.20;99.90;;;;;;5041489;28;20196;-83
2021/04/14 04:38:17;;;;;;;1999.90;999.90;;;1.20;99.90;;;;;;5042252;28;20249;-83
2021/04/14 04:40:43;;;;;;;1999.90;999.90;;;1.20;99.90;;;;;;5041395;28;20166;-83
2021/04/14 04:43:09;;;;;;;1999.90;999.90;;;1.20;99.90;;;;;;5041313;28;20184;-83
2021/04/14 04:45:36;;;;;;;1999.90;999.90;;;1.20;99.90;;;;;;5041272;28;20184;-83
2021/04/14 04:48:02;;;;;;;1999.90;999.90;;;1.30;99.90;;;;;;5041127;28;20268;-83
2021/04/14 04:50:31;;;;;;;1999.90;999.90;;;1.30;99.90;;;;;;5041498;28;20165;-83
2021/04/14 04:53:09;;;;;;;1999.90;999.90;;;1.30;99.90;;;;;;5040816;28;20177;-83
2021/04/14 04:55:35;;;;;;;1999.90;999.90;;;1.30;99.90;;;;;;5039957;28;20212;-83
2021/04/14 04:58:01;;;;;;;1999.90;999.90;;;1.30;99.90;;;;;;5039769;28;20220;-83
2021/04/14 05:00:27;;;;;;;1999.90;999.90;;;1.30;99.90;;;;;;5040552;28;20174;-83
2021/04/14 05:02:54;;;;;;;1999.90;999.90;;;1.40;99.90;;;;;;5040894;28;20165;-83
2021/04/14 05:05:24;;;;;;;1999.90;999.90;;;1.40;99.90;;;;;;5041701;28;20416;-83
2021/04/14 05:07:50;;;;;;;1999.90;999.90;;;1.40;99.90;;;;;;5039295;28;20185;-83
2021/04/14 05:10:16;;;;;;;1999.90;999.90;;;1.50;99.90;;;;;;5041188;28;20165;-83
2021/04/14 05:12:42;;;;;;;1999.90;999.90;;;1.50;99.90;;;;;;5040135;28;20404;-82
2021/04/14 05:15:09;;;;;;;1999.90;999.90;;;1.60;99.90;;;;;;5040631;28;20197;-83
2021/04/14 05:17:35;;;;;;;1999.90;999.90;;;1.70;99.90;;;;;;5039302;28;20683;-83
2021/04/14 05:20:01;;;;;;;1999.90;999.90;;;1.70;99.90;;;;;;5039334;28;20248;-83
2021/04/14 05:22:29;;;;;;;1999.90;999.90;;;1.80;99.90;;;;;;5040228;28;20410;-83
2021/04/14 05:24:56;;;;;;;1999.90;999.90;;;1.80;99.90;;;;;;5040029;28;20524;-83
2021/04/14 05:27:22;;;;;;;1999.90;999.90;;;1.90;99.90;;;;;;5040014;28;20188;-83
2021/04/14 05:29:48;;;;;;;1999.90;999.90;;;2.00;99.90;;;;;;5039672;28;20177;-83
2021/04/14 05:32:14;;;;;;;1999.90;999.90;;;2.10;99.90;;;;;;5039727;28;20176;-83
2021/04/14 05:34:39;;;;;;;1999.90;999.90;;;2.10;99.90;;;;;;5038452;28;20400;-83
2021/04/14 05:37:05;;;;;;;1999.90;999.90;;;2.20;99.90;;;;;;5039974;28;20539;-82
2021/04/14 05:39:31;;;;;;;1999.90;999.90;;;2.30;99.90;;;;;;5039525;28;20244;-83
2021/04/14 05:41:56;;;;;;;1999.90;999.90;;;2.40;99.90;;;;;;5039830;28;20165;-82
2021/04/14 05:44:22;;;;;;;1999.90;999.90;;;2.50;99.90;;;;;;5039042;28;20169;-83
2021/04/14 05:46:48;;;;;;;1999.90;999.90;;;2.60;99.90;;;;;;5039235;28;20216;-83
2021/04/14 05:49:13;;;;;;;1999.90;999.90;;;2.60;99.90;;;;;;5040763;28;20174;-83
2021/04/14 05:51:39;;;;;;;1999.90;999.90;;;2.70;99.90;;;;;;5041476;28;20537;-84
2021/04/14 05:54:05;;;;;;;1999.90;999.90;;;2.80;99.90;;;;;;5043999;28;20179;-83
2021/04/14 05:56:31;;;;;;;1999.90;999.90;;;2.90;99.90;;;;;;5040954;28;20683;-83
2021/04/14 05:58:57;;;;;;;1999.90;999.90;;;3.00;99.90;;;;;;5041993;28;20507;-83
2021/04/14 06:01:26;;;;;;;1999.90;999.90;;;3.00;99.90;;;;;;5042833;28;20165;-83
2021/04/14 06:03:52;;;;;;;1999.90;999.90;;;3.10;99.90;;;;;;5039969;28;20153;-83
2021/04/14 06:06:18;;;;;;;1999.90;999.90;;;3.10;99.90;;;;;;5043516;28;20683;-84
2021/04/14 06:08:44;;;;;;;1999.90;999.90;;;3.10;99.90;;;;;;5043863;28;20406;-84
2021/04/14 06:11:13;;;;;;;1999.90;999.90;;;3.20;99.90;;;;;;5043008;28;20165;-84
2021/04/14 06:13:38;;;;;;;1999.90;999.90;;;3.40;99.90;;;;;;5040380;28;20232;-84
2021/04/14 06:16:07;;;;;;;1999.90;999.90;;;3.50;99.90;;;;;;5037958;28;20259;-83
2021/04/14 06:18:32;;;;;;;1999.90;999.90;;;3.50;99.90;;;;;;5039522;28;20423;-83
2021/04/14 06:20:59;;;;;;;1999.90;999.90;;;3.60;99.90;;;;;;5039704;28;20154;-83
2021/04/14 06:23:25;;;;;;;1999.90;999.90;;;3.70;99.90;;;;;;5040987;28;20172;-84
2021/04/14 06:28:36;;;;;;;1999.90;999.90;;;3.90;99.90;;;;;;5041255;28;20927;-83
2021/04/14 06:31:03;;;;;;;1999.90;999.90;;;3.90;99.90;;;;;;5041058;28;20173;-83
2021/04/14 06:33:31;;;;;;;1999.90;999.90;;;3.90;99.90;;;;;;5039686;28;20165;-84
2021/04/14 06:35:57;;;;;;;1999.90;999.90;;;4.00;99.90;;;;;;5039266;28;20233;-84
2021/04/14 06:38:26;;;;;;;1999.90;999.90;;;4.20;99.90;;;;;;5039214;28;20172;-83
2021/04/14 06:44:12;;;;;;;1999.90;999.90;;;4.30;99.90;;;;;;5015341;28;20173;-84
2021/04/14 06:46:41;;;;;;;1999.90;999.90;;;4.40;99.90;;;;;;5038071;28;20188;-84
2021/04/14 06:49:36;;;;;;;1999.90;999.90;;;4.50;99.90;;;;;;5039677;28;20173;-84
2021/04/14 06:52:59;;;;;;;1999.90;999.90;;;4.50;1.00;;;;;;5039371;28;20241;-83
2021/04/14 06:55:28;;;;;;;1999.90;999.90;;;4.60;1.00;;;;;;4997326;28;20273;-84
2021/04/14 06:58:08;;;;;;;1999.90;999.90;;;4.70;1.00;;;;;;4997962;28;20183;-83
2021/04/14 07:00:39;;;;;;;1999.90;999.90;;;4.60;1.00;;;;;;5022469;28;20505;-83
2021/04/14 07:03:11;;;;;;;1999.90;999.90;;;4.60;1.00;;;;;;5038593;28;20237;-83
2021/04/14 07:05:56;;;;;;;1999.90;999.90;;;4.60;99.90;;;;;;5039286;28;20153;-84
2021/04/14 07:08:27;;;;;;;1999.90;999.90;;;4.50;1.00;;;;;;5040566;28;20624;-84
2021/04/14 07:11:01;;;;;;;1999.90;999.90;;;4.60;99.90;;;;;;5039997;28;20157;-84
2021/04/14 07:13:29;;;;;;;1999.90;999.90;;;4.50;99.90;;;;;;5039623;28;20154;-83
2021/04/14 07:16:15;;;;;;;1999.90;999.90;;;4.60;99.90;;;;;;5038474;28;20683;-83
2021/04/14 07:18:51;;;;;;;1999.90;999.90;;;4.50;1.00;;;;;;5038230;28;20192;-84
2021/04/14 07:21:48;;;;;;;1999.90;999.90;;;4.60;1.00;;;;;;5038802;28;20153;-83
2021/04/14 07:24:34;;;;;;;1999.90;999.90;;;4.60;1.00;;;;;;5031868;28;20177;-83
2021/04/14 07:27:09;;;;;;;1999.90;999.90;;;4.90;1.00;;;;;;5039288;28;20185;-84
2021/04/14 07:29:37;;;;;;;1999.90;999.90;;;5.00;1.00;;;;;;5038684;28;20190;-83
2021/04/14 07:32:14;;;;;;;1999.90;999.90;;;5.10;1.00;;;;;;5039057;28;20169;-83
2021/04/14 07:35:14;;;;;;;1999.90;999.90;;;5.10;1.00;;;;;;5038925;28;20216;-83
2021/04/14 07:37:58;;;;;;;1999.90;999.90;;;5.20;1.00;;;;;;5038604;28;20668;-83
2021/04/14 07:40:46;;;;;;;1999.90;999.90;;;5.40;1.00;;;;;;5038037;28;20173;-83
2021/04/14 07:43:24;;;;;;;1999.90;999.90;;;5.40;1.00;;;;;;5038153;28;20172;-83
2021/04/14 07:45:51;;;;;;;1999.90;999.90;;;5.60;99.90;;;;;;5036127;28;20216;-82
2021/04/14 07:48:30;;;;;;;1999.90;999.90;;;5.60;1.00;;;;;;5034682;28;20192;-82
2021/04/14 07:50:59;;;;;;;1999.90;999.90;;;5.80;1.00;;;;;;5036377;28;20149;-82
2021/04/14 07:53:35;;;;;;;1999.90;999.90;;;6.00;1.00;;;;;;5034874;28;20192;-82
2021/04/14 07:56:06;;;;;;;1999.90;999.90;;;6.10;99.90;;;;;;5035303;28;20276;-82
2021/04/14 07:58:34;;;;;;;1999.90;999.90;;;6.00;1.00;;;;;;5036288;28;20623;-83
2021/04/14 08:01:16;;;;;;;1999.90;999.90;;;6.20;98.60;;;;;;5035361;28;20188;-83
2021/04/14 08:03:42;;;;;;;1999.90;999.90;;;6.40;99.90;;;;;;5036022;28;20161;-83
2021/04/14 08:06:16;;;;;;;1999.90;999.90;;;6.50;99.90;;;;;;5037415;28;20640;-83
2021/04/14 08:08:44;;;;;;;1999.90;999.90;;;6.60;1.00;;;;;;5037190;28;20690;-83
2021/04/14 08:11:16;;;;;;;1999.90;999.90;;;6.60;1.00;;;;;;5039037;28;20184;-84
2021/04/14 08:13:42;;;;;;;1999.90;999.90;;;6.80;1.00;;;;;;5036333;28;20165;-84
2021/04/14 08:16:30;;;;;;;1999.90;999.90;;;7.00;15.10;;;;;;5036385;28;20196;-83
2021/04/14 08:19:11;;;;;;;1999.90;999.90;;;7.00;76.10;;;;;;5037111;28;20157;-83
2021/04/14 08:21:52;;;;;;;1999.90;999.90;;;7.20;87.60;;;;;;5036596;28;20247;-83
2021/04/14 08:24:32;;;;;;;1999.90;999.90;;;7.30;99.90;;;;;;5036805;28;20200;-84
2021/04/14 08:27:03;;;;;;;1999.90;999.90;;;7.40;99.90;;;;;;5034984;28;20189;-83
2021/04/14 08:29:29;;;;;;;1999.90;999.90;;;7.60;99.90;;;;;;5036094;28;20236;-84
2021/04/14 08:31:56;;;;;;;1999.90;999.90;;;7.70;99.90;;;;;;5037219;28;20165;-84
2021/04/14 08:34:30;;;;;;;1999.90;999.90;;;7.80;99.90;;;;;;5036457;28;20171;-84
2021/04/14 08:36:55;;;;;;;1999.90;999.90;;;8.00;99.90;;;;;;5035578;28;20204;-84
2021/04/14 08:39:28;;;;;;;1999.90;999.90;;;8.10;99.70;;;;;;5036453;28;20191;-83
2021/04/14 08:42:12;;;;;;;1999.90;999.90;;;8.10;99.90;;;;;;5036840;28;20150;-83
2021/04/14 08:44:47;;;;;;;1999.90;999.90;;;8.30;99.50;;;;;;5036914;28;20571;-83
2021/04/14 08:47:25;;;;;;;1999.90;999.90;;;8.30;98.70;;;;;;5035950;28;20196;-84
2021/04/14 08:49:59;;;;;;;1999.90;999.90;;;8.40;99.10;;;;;;5036976;28;20166;-83
2021/04/14 08:52:25;;;;;;;1999.90;999.90;;;8.30;96.90;;;;;;5037280;28;20165;-84
2021/04/14 08:54:53;;;;;;;1999.90;999.90;;;8.30;95.00;;;;;;5036113;28;20172;-84
2021/04/14 08:57:19;;;;;;;1999.90;999.90;;;8.10;93.40;;;;;;5036741;28;20185;-84
2021/04/14 08:59:45;;;;;;;1999.90;999.90;;;8.00;84.10;;;;;;5037171;28;20172;-84
2021/04/14 09:02:18;;;;;;;1999.90;999.90;;;7.60;90.30;;;;;;5037742;28;20449;-84
2021/04/14 09:04:46;;;;;;;1999.90;999.90;;;7.30;92.20;;;;;;5039324;28;20146;-84
2021/04/14 09:07:22;;;;;;;1999.90;999.90;;;7.20;93.60;;;;;;5038445;28;20196;-84
2021/04/14 09:09:51;;;;;;;1999.90;999.90;;;7.10;91.50;;;;;;5039629;28;20188;-84
2021/04/14 09:12:17;;;;;;;1999.90;999.90;;;7.00;91.20;;;;;;5041403;28;20165;-84
2021/04/14 09:14:44;;;;;;;1999.90;999.90;;;6.80;93.90;;;;;;5041110;28;20259;-84
2021/04/14 09:17:12;;;;;;;1999.90;999.90;;;6.80;96.80;;;;;;5042231;28;20212;-84
2021/04/14 09:19:50;;;;;;;1999.90;999.90;;;6.70;98.00;;;;;;5042313;28;20165;-84
2021/04/14 09:22:16;;;;;;;1999.90;999.90;;;6.60;97.10;;;;;;5041751;28;20537;-84
2021/04/14 09:24:41;;;;;;;1999.90;999.90;;;6.70;98.80;;;;;;5040085;28;20250;-84
2021/04/14 09:27:37;;;;;;;1999.90;999.90;;;6.60;98.00;;;;;;5041794;28;20185;-84
2021/04/14 09:30:15;;;;;;;1999.90;999.90;;;6.60;99.20;;;;;;5041770;28;20245;-84
2021/04/14 09:33:02;;;;;;;;;;;;;;;;;;;;;
2021/04/14 09:35:28;;;;;;;1999.90;999.90;;;6.60;96.50;;;;;;5040160;28;20281;-83
2021/04/14 09:38:37;;;;;;;1999.90;999.90;;;6.70;96.60;;;;;;5040656;28;20223;-84
2021/04/14 09:41:16;;;;;;;1999.90;999.90;;;6.70;95.60;;;;;;5040766;28;20153;-84
2021/04/14 09:43:49;;;;;;;1999.90;999.90;;;6.70;91.90;;;;;;5039403;28;20666;-84
2021/04/14 09:46:27;;;;;;;1999.90;999.90;;;6.80;90.30;;;;;;5040295;28;20193;-83
2021/04/14 09:48:53;;;;;;;1999.90;999.90;;;6.80;90.30;;;;;;5038932;28;20604;-84
2021/04/14 09:51:27;;;;;;;1999.90;999.90;;;6.90;90.60;;;;;;5039582;28;20165;-84
2021/04/14 09:53:58;;;;;;;1999.90;999.90;;;7.00;90.70;;;;;;5039187;28;20276;-84
2021/04/14 09:56:28;;;;;;;1999.90;999.90;;;7.10;93.00;;;;;;5038885;28;20216;-84
2021/04/14 09:59:26;;;;;;;1999.90;999.90;;;7.20;90.50;;;;;;5039973;28;20544;-84
2021/04/14 10:02:31;;;;;;;1999.90;999.90;;;7.30;93.60;;;;;;5039415;28;20153;-82
2021/04/14 10:05:03;;;;;;;1999.90;999.90;;;7.70;92.80;;;;;;5037162;28;20180;-84
2021/04/14 10:07:35;;;;;;;1999.90;999.90;;;8.20;88.40;;;;;;5035333;28;20285;-83
2021/04/14 10:10:27;;;;;;;1999.90;999.90;;;8.40;86.30;;;;;;5036374;28;20154;-82
2021/04/14 10:13:12;;;;;;;1999.90;999.90;;;8.50;76.80;;;;;;5035491;28;20153;-83
2021/04/14 10:15:40;;;;;;;1999.90;999.90;;;8.50;70.00;;;;;;5035799;28;20191;-82
2021/04/14 10:18:29;;;;;;;1999.90;999.90;;;8.30;61.80;;;;;;5035032;28;20185;-82
2021/04/14 10:21:11;;;;;;;1999.90;999.90;;;8.10;67.50;;;;;;5035633;28;20156;-82
2021/04/14 10:23:43;;;;;;;1999.90;999.90;;;8.20;51.60;;;;;;5036345;28;20145;-82
2021/04/14 10:26:38;;;;;;;1999.90;999.90;;;8.30;57.30;;;;;;5036191;28;20665;-83
2021/04/14 10:29:10;;;;;;;1999.90;999.90;;;8.50;50.10;;;;;;5036334;28;20260;-82
2021/04/14 10:31:37;;;;;;;1999.90;999.90;;;8.70;48.80;;;;;;5036126;28;20257;-82
2021/04/14 10:34:34;;;;;;;1999.90;999.90;;;9.00;30.20;;;;;;5036988;28;20710;-82
2021/04/14 10:37:32;;;;;;;1999.90;999.90;;;9.00;22.60;;;;;;5035794;28;20193;-82
2021/04/14 10:40:18;;;;;;;1999.90;999.90;;;9.00;21.10;;;;;;5035492;28;20200;-82
2021/04/14 10:42:44;;;;;;;1999.90;999.90;;;8.70;24.70;;;;;;5035365;28;20203;-83
2021/04/14 10:45:14;;;;;;;1999.90;999.90;;;8.70;27.60;;;;;;5036785;28;20161;-82
2021/04/14 10:47:42;;;;;;;1999.90;999.90;;;8.70;25.20;;;;;;5035513;28;20220;-83
2021/04/14 10:50:36;;;;;;;1999.90;999.90;;;8.70;21.70;;;;;;5036960;28;20165;-82
2021/04/14 10:53:06;;;;;;;1999.90;999.90;;;8.60;18.80;;;;;;5035710;28;20180;-83
2021/04/14 10:55:44;;;;;;;1999.90;999.90;;;8.70;23.20;;;;;;5038457;28;20185;-84
2021/04/14 10:58:23;;;;;;;1999.90;999.90;;;9.10;24.10;;;;;;5036979;28;20252;-84
2021/04/14 11:00:50;;;;;;;1999.90;999.90;;;9.70;22.00;;;;;;5036252;28;20248;-83
2021/04/14 11:03:21;;;;;;;1999.90;999.90;;;10.40;16.60;;;;;;5036824;28;20224;-84
2021/04/14 11:05:57;;;;;;;1999.90;999.90;;;11.10;15.20;;;;;;5037545;28;20169;-83
2021/04/14 11:08:24;;;;;;;1999.90;999.90;;;11.40;6.10;;;;;;5038104;28;20179;-84
2021/04/14 11:10:52;;;;;;;1999.90;999.90;;;11.60;6.20;;;;;;5037719;28;20212;-84
2021/04/14 11:13:22;;;;;;;1999.90;999.90;;;11.30;1.00;;;;;;5037785;28;20169;-83
2021/04/14 11:15:50;;;;;;;1999.90;999.90;;;10.90;1.00;;;;;;5037931;28;20200;-84
2021/04/14 11:18:18;;;;;;;1999.90;999.90;;;10.50;1.00;;;;;;5038619;28;20166;-84
2021/04/14 11:20:54;;;;;;;1999.90;999.90;;;10.00;1.00;;;;;;5038513;28;20673;-84
2021/04/14 11:23:25;;;;;;;1999.90;999.90;;;9.90;1.00;;;;;;5037908;28;20165;-85
2021/04/14 11:26:05;;;;;;;1999.90;999.90;;;9.80;1.00;;;;;;5038966;28;20141;-84
2021/04/14 11:28:48;;;;;;;1999.90;999.90;;;9.70;1.00;;;;;;5103838;23;20699;-80
2021/04/14 11:31:37;;;;;;;1999.90;999.90;;;9.80;1.00;;;;;;5022873;28;20189;-79
2021/04/14 11:34:20;;;;;;;1999.90;999.90;;;10.20;1.30;;;;;;5017008;28;20188;-79
2021/04/14 11:37:03;;;;;;;1999.90;999.90;;;10.50;1.00;;;;;;5018506;28;20206;-79
2021/04/14 11:39:50;;;;;;;1999.90;999.90;;;10.40;1.00;;;;;;5019520;28;20138;-78
2021/04/14 11:42:19;;;;;;;1999.90;999.90;;;10.40;1.00;;;;;;5018685;28;20178;-78
2021/04/14 11:44:55;;;;;;;1999.90;999.90;;;10.80;1.00;;;;;;5019491;28;20162;-79
2021/04/14 11:47:35;;;;;;;1999.90;999.90;;;11.30;1.00;;;;;;5018093;28;20240;-78
2021/04/14 11:50:22;;;;;;;1999.90;999.90;;;11.70;1.00;;;;;;5019161;28;20146;-79
2021/04/14 11:52:57;;;;;;;1999.90;999.90;;;12.10;1.00;;;;;;5019258;28;20189;-79
2021/04/14 11:55:29;;;;;;;1999.90;999.90;;;12.00;1.00;;;;;;5019772;28;20534;-78
2021/04/14 11:57:57;;;;;;;1999.90;999.90;;;11.80;1.00;;;;;;5020605;28;20186;-78
2021/04/14 12:00:22;;;;;;;1999.90;999.90;;;11.30;1.00;;;;;;5021722;28;20641;-80
2021/04/14 12:02:55;;;;;;;1999.90;999.90;;;10.90;1.00;;;;;;5022239;28;20173;-79
2021/04/14 12:05:20;;;;;;;1999.90;999.90;;;10.90;1.00;;;;;;5022545;28;20196;-79
2021/04/14 12:07:46;;;;;;;1999.90;999.90;;;10.80;1.00;;;;;;5022184;28;20189;-79
2021/04/14 12:10:12;;;;;;;1999.90;999.90;;;10.80;1.00;;;;;;5021530;28;20707;-79
2021/04/14 12:12:38;;;;;;;1999.90;999.90;;;10.60;1.00;;;;;;5021976;28;20158;-79
2021/04/14 12:15:08;;;;;;;1999.90;999.90;;;10.90;1.00;;;;;;5018805;28;20166;-79
2021/04/14 12:17:34;;;;;;;1999.90;999.90;;;11.10;1.00;;;;;;5019105;28;20217;-80
2021/04/14 12:20:00;;;;;;;1999.90;999.90;;;11.30;1.00;;;;;;5023513;28;20181;-80
2021/04/14 12:22:26;;;;;;;1999.90;999.90;;;11.10;1.00;;;;;;5019989;28;20165;-79
2021/04/14 12:24:52;;;;;;;1999.90;999.90;;;10.80;1.00;;;;;;5021837;28;20162;-79
2021/04/14 12:27:17;;;;;;;1999.90;999.90;;;10.30;1.00;;;;;;5020276;28;20198;-79
2021/04/14 12:29:44;;;;;;;1999.90;999.90;;;9.90;1.00;;;;;;5019350;28;20455;-79
2021/04/14 12:32:10;;;;;;;1999.90;999.90;;;9.50;4.90;;;;;;5019142;28;20162;-79
2021/04/14 12:34:35;;;;;;;1999.90;999.90;;;9.30;8.80;;;;;;5018400;28;20184;-79